Time;durP1;ratioP1;P1;durP2;ratioP2;P2;SDS_P1;SDS_P2;PMS_P1;PMS_P2;Temp;Humidity;BMP_temperature;BMP_pressure;BME280_temperature;BME280_humidity;BME280_pressure;Samples;Min_cycle;Max_cycle;Signal;HPM_P1;HPM_P2
2022/08/13 00:01:18;;;;;;;;;;;15.70;90.00;;;;;;5068237;27;19970;-39
2022/08/13 00:03:44;;;;;;;;;;;15.70;90.40;;;;;;5067251;28;19912;-39
2022/08/13 00:06:10;;;;;;;;;;;15.60;90.40;;;;;;5073416;28;19939;-39
2022/08/13 00:08:37;;;;;;;;;;;15.60;90.10;;;;;;5067422;28;19921;-40
2022/08/13 00:11:05;;;;;;;;;;;15.50;90.50;;;;;;5069032;28;20347;-39
2022/08/13 00:13:30;;;;;;;;;;;15.50;92.70;;;;;;5070713;28;20478;-39
2022/08/13 00:15:59;;;;;;;;;;;14.90;97.10;;;;;;5065537;28;19961;-41
2022/08/13 00:18:29;;;;;;;;;;;14.80;97.80;;;;;;5068378;28;19908;-38
2022/08/13 00:20:56;;;;;;;;;;;14.70;98.20;;;;;;5071660;28;20376;-40
2022/08/13 00:23:23;;;;;;;;;;;14.60;99.30;;;;;;5067586;28;19929;-38
2022/08/13 00:25:54;;;;;;;;;;;14.50;99.30;;;;;;5069737;28;19916;-33
2022/08/13 00:28:20;;;;;;;;;;;14.10;99.90;;;;;;5066617;28;19913;-37
2022/08/13 00:30:46;;;;;;;;;;;13.90;99.90;;;;;;5067117;28;19916;-40
2022/08/13 00:33:14;;;;;;;;;;;14.00;99.90;;;;;;5065999;28;19927;-37
2022/08/13 00:35:41;;;;;;;;;;;13.70;99.90;;;;;;5061407;28;19912;-36
2022/08/13 00:38:12;;;;;;;;;;;13.40;99.90;;;;;;5069566;28;19916;-40
2022/08/13 00:40:48;;;;;;;;;;;13.60;99.90;;;;;;5066430;28;19980;-37
2022/08/13 00:43:14;;;;;;;;;;;13.80;99.90;;;;;;5065258;28;20033;-37
2022/08/13 00:45:40;;;;;;;;;;;14.00;99.90;;;;;;5070941;28;20015;-41
2022/08/13 00:50:51;;;;;;;;;;;14.20;97.00;;;;;;5065709;28;20394;-41
2022/08/13 00:53:17;;;;;;;;;;;14.20;97.30;;;;;;5068396;28;20001;-40
2022/08/13 00:55:45;;;;;;;;;;;14.30;96.70;;;;;;5072305;28;19912;-40
2022/08/13 00:58:15;;;;;;;;;;;14.30;96.10;;;;;;5100915;27;19986;-38
2022/08/13 01:00:41;;;;;;;;;;;14.40;96.50;;;;;;5074810;28;19916;-36
2022/08/13 01:03:07;;;;;;;;;;;14.40;98.10;;;;;;5086617;28;19912;-30
2022/08/13 01:05:33;;;;;;;;;;;14.20;99.90;;;;;;5086497;28;19916;-31
2022/08/13 01:07:59;;;;;;;;;;;14.20;99.00;;;;;;5087522;28;19916;-31
2022/08/13 01:10:24;;;;;;;;;;;14.30;98.50;;;;;;5087977;28;19912;-33
2022/08/13 01:12:51;;;;;;;;;;;14.30;97.10;;;;;;5089461;28;19914;-35
2022/08/13 01:15:16;;;;;;;;;;;14.30;96.50;;;;;;5093877;28;19912;-34
2022/08/13 01:17:45;;;;;;;;;;;14.30;96.80;;;;;;5089720;28;19947;-33
2022/08/13 01:20:20;;;;;;;;;;;14.20;96.30;;;;;;5086775;28;19908;-34
2022/08/13 01:22:47;;;;;;;;;;;14.20;95.80;;;;;;5087762;28;19919;-32
2022/08/13 01:25:12;;;;;;;;;;;14.20;96.10;;;;;;5085817;28;19924;-31
2022/08/13 01:27:39;;;;;;;;;;;14.10;96.60;;;;;;5089152;28;20697;-34
2022/08/13 01:30:05;;;;;;;;;;;14.00;98.10;;;;;;5079012;28;19913;-32
2022/08/13 01:32:31;;;;;;;;;;;13.70;99.90;;;;;;5089058;28;19924;-31
2022/08/13 01:34:58;;;;;;;;;;;13.70;98.80;;;;;;5088899;28;20001;-32
2022/08/13 01:37:24;;;;;;;;;;;13.60;99.90;;;;;;5087524;28;19919;-31
2022/08/13 01:39:50;;;;;;;;;;;13.70;99.70;;;;;;5086822;28;19916;-35
2022/08/13 01:42:22;;;;;;;;;;;13.70;99.90;;;;;;5090135;28;19916;-35
2022/08/13 01:44:48;;;;;;;;;;;13.70;99.90;;;;;;5088554;28;19937;-35
2022/08/13 01:52:42;;;;;;;;;;;13.70;97.50;;;;;;5087053;28;20656;-34
2022/08/13 01:55:08;;;;;;;;;;;13.70;99.90;;;;;;5090263;28;19951;-33
2022/08/13 01:57:36;;;;;;;;;;;13.70;98.30;;;;;;5086650;28;19916;-31
2022/08/13 02:00:05;;;;;;;;;;;13.70;97.60;;;;;;5091662;28;19908;-30
2022/08/13 02:02:30;;;;;;;;;;;13.60;96.90;;;;;;5082360;28;19973;-31
2022/08/13 02:04:56;;;;;;;;;;;13.60;95.80;;;;;;5097331;28;19919;-30
2022/08/13 02:07:21;;;;;;;;;;;13.40;95.70;;;;;;5082421;28;20003;-32
2022/08/13 02:09:47;;;;;;;;;;;13.20;96.60;;;;;;5091254;28;19912;-36
2022/08/13 02:12:14;;;;;;;;;;;13.20;97.20;;;;;;5093158;28;19912;-33
2022/08/13 02:14:42;;;;;;;;;;;13.20;97.60;;;;;;5092022;28;19917;-32
2022/08/13 02:17:25;;;;;;;;;;;13.30;97.00;;;;;;5084197;28;21719;-34
2022/08/13 02:19:54;;;;;;;;;;;13.40;97.60;;;;;;5086410;28;19918;-34
2022/08/13 02:22:20;;;;;;;;;;;13.20;99.90;;;;;;5073396;28;19916;-31
2022/08/13 02:24:53;;;;;;;;;;;13.10;99.90;;;;;;5088966;28;19924;-34
2022/08/13 02:27:24;;;;;;;;;;;13.10;99.90;;;;;;5085414;28;19921;-30
2022/08/13 02:29:51;;;;;;;;;;;13.10;99.90;;;;;;5086588;28;19935;-33
2022/08/13 02:32:17;;;;;;;;;;;13.10;99.90;;;;;;5085522;28;19915;-33
2022/08/13 02:34:50;;;;;;;;;;;13.10;99.80;;;;;;5085486;28;19923;-33
2022/08/13 02:37:16;;;;;;;;;;;13.10;98.30;;;;;;5087769;28;19908;-32
2022/08/13 02:39:42;;;;;;;;;;;13.10;97.70;;;;;;5087904;28;19942;-35
2022/08/13 02:42:09;;;;;;;;;;;13.10;99.90;;;;;;5088431;28;19911;-37
2022/08/13 02:44:35;;;;;;;;;;;13.00;99.90;;;;;;5087134;28;19949;-31
2022/08/13 02:47:02;;;;;;;;;;;13.00;99.90;;;;;;5089723;28;19916;-32
2022/08/13 02:49:27;;;;;;;;;;;12.50;99.90;;;;;;5089687;28;19915;-31
2022/08/13 02:51:54;;;;;;;;;;;12.00;99.90;;;;;;5086984;28;19972;-33
2022/08/13 02:54:22;;;;;;;;;;;11.70;99.90;;;;;;5087684;28;19919;-33
2022/08/13 02:56:48;;;;;;;;;;;11.50;99.90;;;;;;5089713;28;19915;-36
2022/08/13 02:59:13;;;;;;;;;;;11.30;99.90;;;;;;5092584;28;19971;-30
2022/08/13 03:01:39;;;;;;;;;;;11.50;99.90;;;;;;5087484;28;19916;-33
2022/08/13 03:04:05;;;;;;;;;;;11.80;99.90;;;;;;5087647;28;19915;-33
2022/08/13 03:06:31;;;;;;;;;;;12.00;99.90;;;;;;5086971;28;19916;-33
2022/08/13 03:08:56;;;;;;;;;;;12.10;99.90;;;;;;5087276;28;19978;-30
2022/08/13 03:11:22;;;;;;;;;;;12.30;99.90;;;;;;5086366;28;19926;-33
2022/08/13 03:13:58;;;;;;;;;;;12.40;99.90;;;;;;5088637;28;19912;-33
2022/08/13 03:16:26;;;;;;;;;;;12.40;99.90;;;;;;5089857;28;19908;-30
2022/08/13 03:18:53;;;;;;;;;;;12.30;99.90;;;;;;5093780;28;19908;-32
2022/08/13 03:21:19;;;;;;;;;;;12.00;99.90;;;;;;5088105;28;19912;-30
2022/08/13 03:23:46;;;;;;;;;;;12.10;99.90;;;;;;5093468;28;19916;-34
2022/08/13 03:26:11;;;;;;;;;;;12.10;99.90;;;;;;5082845;28;19923;-33
2022/08/13 03:28:38;;;;;;;;;;;12.20;99.90;;;;;;5086627;28;19908;-36
2022/08/13 03:31:05;;;;;;;;;;;12.20;99.90;;;;;;5084732;28;19973;-33
2022/08/13 03:33:31;;;;;;;;;;;12.20;99.90;;;;;;5088063;28;19919;-32
2022/08/13 03:35:57;;;;;;;;;;;12.30;99.90;;;;;;5087459;28;19915;-30
2022/08/13 03:38:23;;;;;;;;;;;12.30;99.60;;;;;;5086197;28;19908;-34
2022/08/13 03:41:00;;;;;;;;;;;12.30;99.80;;;;;;5091469;28;19909;-33
2022/08/13 03:43:27;;;;;;;;;;;12.30;99.90;;;;;;5086195;28;20495;-30
2022/08/13 03:45:54;;;;;;;;;;;12.10;99.90;;;;;;5086845;28;19919;-36
2022/08/13 03:48:21;;;;;;;;;;;12.10;99.90;;;;;;5084002;28;19904;-34
2022/08/13 03:50:48;;;;;;;;;;;12.00;99.90;;;;;;5087871;28;19916;-31
2022/08/13 03:53:15;;;;;;;;;;;12.00;99.90;;;;;;5084512;28;19912;-32
2022/08/13 03:55:42;;;;;;;;;;;12.00;99.90;;;;;;5084263;28;19912;-34
2022/08/13 03:58:08;;;;;;;;;;;11.80;99.90;;;;;;5089270;28;19912;-33
2022/08/13 04:00:36;;;;;;;;;;;11.80;99.90;;;;;;5086196;28;19917;-31
2022/08/13 04:03:14;;;;;;;;;;;11.90;99.90;;;;;;5084977;28;19908;-35
2022/08/13 04:05:40;;;;;;;;;;;11.90;99.90;;;;;;5087137;28;20051;-33
2022/08/13 04:08:05;;;;;;;;;;;12.00;99.90;;;;;;5084867;28;19912;-32
2022/08/13 04:10:31;;;;;;;;;;;12.00;99.90;;;;;;5086482;28;19915;-33
2022/08/13 04:12:56;;;;;;;;;;;12.00;99.90;;;;;;5080040;28;19964;-31
2022/08/13 04:15:22;;;;;;;;;;;12.00;99.90;;;;;;5082456;28;19963;-34
2022/08/13 04:17:47;;;;;;;;;;;11.90;99.90;;;;;;5083220;28;19913;-33
2022/08/13 04:20:13;;;;;;;;;;;11.70;99.90;;;;;;5086447;28;19912;-33
2022/08/13 04:22:39;;;;;;;;;;;11.60;99.90;;;;;;5085849;28;19919;-37
2022/08/13 04:25:08;;;;;;;;;;;11.60;99.90;;;;;;5092936;28;19924;-37
2022/08/13 04:27:34;;;;;;;;;;;11.40;99.90;;;;;;5088144;28;19944;-32
2022/08/13 04:30:01;;;;;;;;;;;11.40;99.90;;;;;;5086530;28;19915;-31
2022/08/13 04:32:27;;;;;;;;;;;11.60;99.90;;;;;;5087311;28;19932;-30
2022/08/13 04:34:53;;;;;;;;;;;11.20;99.90;;;;;;5089636;28;19972;-31
2022/08/13 04:37:18;;;;;;;;;;;11.20;99.90;;;;;;5087230;28;19908;-32
2022/08/13 04:39:44;;;;;;;;;;;11.20;99.90;;;;;;5090756;28;19918;-38
2022/08/13 04:42:11;;;;;;;;;;;11.30;99.90;;;;;;5093026;28;19912;-33
2022/08/13 04:44:37;;;;;;;;;;;11.40;99.90;;;;;;5084987;28;19985;-37
2022/08/13 04:47:04;;;;;;;;;;;11.50;99.90;;;;;;5089423;28;19908;-35
2022/08/13 04:49:30;;;;;;;;;;;11.40;99.90;;;;;;5090863;28;19916;-31
2022/08/13 04:51:56;;;;;;;;;;;11.50;99.90;;;;;;5088955;28;19916;-33
2022/08/13 04:54:21;;;;;;;;;;;11.40;99.90;;;;;;5086327;28;19923;-36
2022/08/13 04:56:47;;;;;;;;;;;11.40;99.90;;;;;;5089057;28;19938;-34
2022/08/13 04:59:12;;;;;;;;;;;11.50;99.90;;;;;;5087154;28;20356;-33
2022/08/13 05:01:38;;;;;;;;;;;11.60;99.90;;;;;;5087794;27;19912;-39
2022/08/13 05:04:04;;;;;;;;;;;11.70;99.90;;;;;;5086705;28;19951;-32
2022/08/13 05:06:29;;;;;;;;;;;11.70;99.90;;;;;;5083985;28;20607;-35
2022/08/13 05:09:00;;;;;;;;;;;11.80;99.90;;;;;;5085374;28;19973;-37
2022/08/13 05:11:26;;;;;;;;;;;11.80;99.90;;;;;;5084725;28;19939;-34
2022/08/13 05:13:51;;;;;;;;;;;11.90;99.90;;;;;;5087153;28;19943;-34
2022/08/13 05:16:17;;;;;;;;;;;11.70;99.90;;;;;;5085888;28;19934;-38
2022/08/13 05:18:45;;;;;;;;;;;11.60;99.90;;;;;;5091392;28;20376;-36
2022/08/13 05:21:11;;;;;;;;;;;11.40;99.90;;;;;;5082752;28;19913;-33
2022/08/13 05:23:38;;;;;;;;;;;11.50;99.90;;;;;;5086312;28;19947;-36
2022/08/13 05:26:04;;;;;;;;;;;11.60;99.90;;;;;;5085780;28;19919;-33
2022/08/13 05:28:31;;;;;;;;;;;11.60;99.90;;;;;;5085011;28;19939;-35
2022/08/13 05:30:57;;;;;;;;;;;11.60;99.90;;;;;;5070593;28;19932;-35
2022/08/13 05:33:24;;;;;;;;;;;11.80;99.90;;;;;;5080976;28;19976;-30
2022/08/13 05:35:52;;;;;;;;;;;11.90;99.90;;;;;;5088298;28;19912;-32
2022/08/13 05:38:21;;;;;;;;;;;12.10;99.90;;;;;;5084169;28;19915;-32
2022/08/13 05:40:48;;;;;;;;;;;12.20;99.90;;;;;;5089129;28;20213;-32
2022/08/13 05:43:21;;;;;;;;;;;12.30;99.90;;;;;;5089070;28;19909;-32
2022/08/13 05:45:48;;;;;;;;;;;12.20;99.90;;;;;;5085299;28;19994;-35
2022/08/13 05:48:13;;;;;;;;;;;12.20;99.90;;;;;;5088416;28;20377;-31
2022/08/13 05:50:39;;;;;;;;;;;12.20;99.90;;;;;;5084567;28;19920;-34
2022/08/13 05:53:07;;;;;;;;;;;12.10;99.90;;;;;;5088201;28;19919;-31
2022/08/13 05:55:34;;;;;;;;;;;12.00;99.90;;;;;;5085846;28;19908;-31
2022/08/13 05:57:59;;;;;;;;;;;11.90;99.90;;;;;;5081139;28;19919;-33
2022/08/13 06:03:25;;;;;;;;;;;12.00;99.90;;;;;;5080130;28;19916;-35
2022/08/13 06:05:55;;;;;;;;;;;12.00;99.90;;;;;;5116024;27;19920;-32
2022/08/13 06:08:28;;;;;;;;;;;12.10;99.90;;;;;;5081566;28;19919;-35
2022/08/13 06:10:54;;;;;;;;;;;12.20;99.90;;;;;;5084873;28;19948;-36
2022/08/13 06:13:19;;;;;;;;;;;12.40;99.90;;;;;;5086782;28;20433;-30
2022/08/13 06:15:53;;;;;;;;;;;12.50;99.90;;;;;;5085310;28;19988;-34
2022/08/13 06:18:19;;;;;;;;;;;12.60;99.90;;;;;;5075479;28;19912;-31
2022/08/13 06:20:45;;;;;;;;;;;12.60;99.90;;;;;;5082223;28;20284;-34
2022/08/13 06:23:14;;;;;;;;;;;12.70;99.90;;;;;;5086331;28;19919;-33
2022/08/13 06:25:41;;;;;;;;;;;12.70;99.90;;;;;;5084910;28;19948;-32
2022/08/13 06:28:10;;;;;;;;;;;12.80;99.90;;;;;;5088670;28;19916;-30
2022/08/13 06:30:36;;;;;;;;;;;12.90;99.90;;;;;;5091338;27;19919;-31
2022/08/13 06:33:02;;;;;;;;;;;13.10;99.90;;;;;;5086359;28;19908;-31
2022/08/13 06:35:28;;;;;;;;;;;13.20;99.90;;;;;;5088351;28;19971;-31
2022/08/13 06:37:54;;;;;;;;;;;13.40;99.90;;;;;;5084243;28;19908;-33
2022/08/13 06:40:21;;;;;;;;;;;13.50;99.90;;;;;;5088321;28;20011;-32
2022/08/13 06:42:47;;;;;;;;;;;13.70;99.90;;;;;;5088226;28;19927;-33
2022/08/13 06:45:12;;;;;;;;;;;13.90;99.90;;;;;;5084238;28;19916;-30
2022/08/13 06:47:39;;;;;;;;;;;14.10;99.90;;;;;;5090827;28;19953;-33
2022/08/13 06:50:09;;;;;;;;;;;14.40;99.90;;;;;;5082254;28;19919;-30
2022/08/13 06:52:36;;;;;;;;;;;14.70;99.90;;;;;;5088063;28;19915;-31
2022/08/13 06:55:01;;;;;;;;;;;15.00;99.90;;;;;;5081118;28;19957;-36
2022/08/13 06:57:27;;;;;;;;;;;15.30;99.90;;;;;;5090791;28;19909;-30
2022/08/13 06:59:57;;;;;;;;;;;15.50;99.90;;;;;;5083760;28;19912;-34
2022/08/13 07:02:24;;;;;;;;;;;15.70;99.90;;;;;;5080749;27;19917;-32
2022/08/13 07:04:49;;;;;;;;;;;16.00;99.90;;;;;;5084855;28;20003;-32
2022/08/13 07:07:17;;;;;;;;;;;16.10;99.90;;;;;;5081546;28;19940;-31
2022/08/13 07:09:44;;;;;;;;;;;16.20;99.90;;;;;;5082060;28;19948;-32
2022/08/13 07:12:10;;;;;;;;;;;16.60;99.90;;;;;;5081527;28;19913;-33
2022/08/13 07:14:36;;;;;;;;;;;16.90;99.90;;;;;;5081777;28;19917;-31
2022/08/13 07:17:02;;;;;;;;;;;17.10;99.90;;;;;;5090568;28;20053;-33
2022/08/13 07:19:28;;;;;;;;;;;17.20;99.90;;;;;;5083973;28;19909;-30
2022/08/13 07:21:54;;;;;;;;;;;17.40;99.90;;;;;;5091626;28;19908;-31
2022/08/13 07:24:20;;;;;;;;;;;17.60;99.90;;;;;;5080487;28;19924;-30
2022/08/13 07:26:45;;;;;;;;;;;17.80;99.50;;;;;;5087896;28;20352;-31
2022/08/13 07:29:12;;;;;;;;;;;17.90;99.90;;;;;;5084224;28;19916;-34
2022/08/13 07:31:40;;;;;;;;;;;18.00;97.80;;;;;;5083420;28;20304;-32
2022/08/13 07:34:06;;;;;;;;;;;18.10;98.40;;;;;;5081258;28;20081;-31
2022/08/13 07:36:37;;;;;;;;;;;18.30;96.80;;;;;;5088872;28;19980;-32
2022/08/13 07:39:10;;;;;;;;;;;18.30;96.80;;;;;;5088722;28;19909;-34
2022/08/13 07:41:39;;;;;;;;;;;18.50;97.10;;;;;;5080532;28;19912;-32
2022/08/13 07:44:05;;;;;;;;;;;18.70;96.20;;;;;;5076419;28;19896;-34
2022/08/13 07:46:42;;;;;;;;;;;18.90;94.70;;;;;;5079918;28;19948;-32
2022/08/13 07:49:09;;;;;;;;;;;19.10;94.90;;;;;;5076168;28;19916;-31
2022/08/13 07:51:37;;;;;;;;;;;19.30;94.60;;;;;;5078383;28;20426;-33
2022/08/13 07:54:05;;;;;;;;;;;19.50;93.10;;;;;;5071815;28;19916;-33
2022/08/13 07:56:31;;;;;;;;;;;19.50;92.60;;;;;;5076692;28;19922;-36
2022/08/13 07:59:00;;;;;;;;;;;19.70;90.40;;;;;;5076393;28;19980;-33
2022/08/13 08:01:28;;;;;;;;;;;19.80;94.20;;;;;;5076821;28;20350;-31
2022/08/13 08:03:58;;;;;;;;;;;20.10;91.40;;;;;;5084017;28;19912;-30
2022/08/13 08:06:24;;;;;;;;;;;20.30;87.20;;;;;;5090706;28;19927;-33
2022/08/13 08:08:53;;;;;;;;;;;20.50;90.50;;;;;;5071605;28;19916;-30
2022/08/13 08:14:03;;;;;;;;;;;20.70;79.30;;;;;;5082421;28;19923;-33
2022/08/13 08:16:30;;;;;;;;;;;20.70;82.60;;;;;;5082155;28;19916;-33
2022/08/13 08:18:57;;;;;;;;;;;20.90;83.50;;;;;;5079795;28;19918;-31
2022/08/13 08:21:23;;;;;;;;;;;21.10;83.60;;;;;;5080406;28;19912;-36
2022/08/13 08:23:52;;;;;;;;;;;21.30;78.40;;;;;;5073417;28;19956;-33
2022/08/13 08:26:18;;;;;;;;;;;21.40;74.50;;;;;;5076523;28;19912;-37
2022/08/13 08:28:46;;;;;;;;;;;21.60;76.80;;;;;;5084139;28;19915;-34
2022/08/13 08:31:11;;;;;;;;;;;21.80;75.60;;;;;;5081888;27;19917;-32
2022/08/13 08:33:40;;;;;;;;;;;21.90;68.60;;;;;;5080163;28;19908;-36
2022/08/13 08:36:06;;;;;;;;;;;21.70;70.70;;;;;;5071421;28;20324;-36
2022/08/13 08:44:02;;;;;;;;;;;22.10;64.50;;;;;;5079213;28;19915;-33
2022/08/13 08:46:33;;;;;;;;;;;22.20;68.10;;;;;;5087021;28;19918;-32
2022/08/13 08:49:00;;;;;;;;;;;22.40;75.00;;;;;;5071495;28;19993;-39
2022/08/13 08:51:26;;;;;;;;;;;22.60;64.20;;;;;;5085549;28;19908;-39
2022/08/13 08:53:51;;;;;;;;;;;22.50;60.80;;;;;;5081731;28;19912;-31
2022/08/13 08:56:20;;;;;;;;;;;22.50;66.00;;;;;;5079052;28;19919;-31
2022/08/13 08:58:45;;;;;;;;;;;22.50;63.50;;;;;;5078577;28;19912;-31
2022/08/13 09:01:11;;;;;;;;;;;22.70;66.00;;;;;;5113804;27;19959;-33
2022/08/13 09:03:42;;;;;;;;;;;22.90;65.90;;;;;;5080224;28;20426;-32
2022/08/13 09:06:08;;;;;;;;;;;22.90;62.50;;;;;;5085304;28;19912;-31
2022/08/13 09:08:35;;;;;;;;;;;23.10;64.00;;;;;;5089689;28;19915;-32
2022/08/13 09:11:01;;;;;;;;;;;23.10;61.30;;;;;;5086571;28;19920;-34
2022/08/13 09:13:27;;;;;;;;;;;23.30;62.50;;;;;;5086825;28;19916;-31
2022/08/13 09:15:55;;;;;;;;;;;23.60;59.20;;;;;;5089286;28;19919;-31
2022/08/13 09:18:21;;;;;;;;;;;23.60;57.40;;;;;;5087767;28;20789;-30
2022/08/13 09:21:42;;;;;;;5.10;2.30;;;23.60;57.20;;;;;;5080318;28;20445;-30
2022/08/13 09:24:10;;;;;;;2.55;2.35;;;23.90;59.10;;;;;;5057809;28;20025;-29
2022/08/13 09:26:38;;;;;;;2.40;2.20;;;24.10;56.10;;;;;;5064562;28;20025;-31
2022/08/13 09:29:04;;;;;;;4.15;2.30;;;24.00;54.50;;;;;;5054063;28;20022;-34
2022/08/13 09:31:30;;;;;;;2.17;1.98;;;24.20;56.10;;;;;;5062324;27;20120;-30
2022/08/13 09:33:55;;;;;;;85.70;10.68;;;24.50;50.20;;;;;;5062336;28;20056;-31
2022/08/13 09:36:23;;;;;;;62.05;9.10;;;24.40;49.40;;;;;;5066807;28;20013;-30
2022/08/13 09:38:50;;;;;;;6.15;3.30;;;24.50;48.30;;;;;;5078223;28;20444;-34
2022/08/13 09:41:27;;;;;;;2.05;1.85;;;24.50;47.40;;;;;;5065624;28;20033;-32
2022/08/13 09:43:56;;;;;;;;;;;24.50;46.70;;;;;;5057554;28;20017;-31
2022/08/13 09:46:23;;;;;;;3.42;2.03;;;24.50;47.90;;;;;;5068603;28;19913;-34
2022/08/13 09:48:51;;;;;;;13.18;3.17;;;24.60;48.50;;;;;;5063621;28;20102;-34
2022/08/13 09:51:17;;;;;;;2.35;2.15;;;24.70;45.80;;;;;;5069151;28;20041;-32
2022/08/13 09:53:46;;;;;;;2.30;2.10;;;24.60;50.20;;;;;;5077292;28;20084;-33
2022/08/13 09:56:17;;;;;;;2.75;2.03;;;24.80;50.50;;;;;;5068927;28;20028;-30
2022/08/13 09:58:49;;;;;;;2.90;2.20;;;24.90;49.60;;;;;;5071716;28;20076;-33
2022/08/13 10:01:15;;;;;;;2.33;2.13;;;24.80;47.60;;;;;;5072443;28;20048;-33
2022/08/13 10:03:42;;;;;;;2.70;2.50;;;24.80;46.90;;;;;;5082632;28;20092;-35
2022/08/13 10:06:09;;;;;;;2.30;2.10;;;24.90;48.30;;;;;;5074926;28;20041;-31
2022/08/13 10:08:35;;;;;;;2.58;2.38;;;24.90;46.60;;;;;;5068554;28;20033;-36
2022/08/13 10:11:01;;;;;;;2.60;1.90;;;24.70;48.10;;;;;;5072809;28;20086;-33
2022/08/13 10:13:28;;;;;;;2.05;1.95;;;25.00;43.00;;;;;;5067196;28;20017;-31
2022/08/13 10:15:54;;;;;;;13.10;2.90;;;25.10;44.90;;;;;;5075888;28;20162;-34
2022/08/13 10:18:20;;;;;;;41.70;5.30;;;25.30;42.80;;;;;;5068389;28;20490;-34
2022/08/13 10:20:48;;;;;;;2.42;2.03;;;25.10;42.50;;;;;;5075406;28;20054;-33
2022/08/13 10:23:16;;;;;;;16.77;2.90;;;25.10;42.90;;;;;;5071991;28;20075;-33
2022/08/13 10:25:43;;;;;;;2.47;2.10;;;25.20;43.40;;;;;;5076195;28;20111;-31
2022/08/13 10:28:21;;;;;;;3.00;1.80;;;25.00;40.70;;;;;;5069227;28;20021;-34
2022/08/13 10:30:47;;;;;;;2.28;1.90;;;25.00;42.50;;;;;;5060355;28;20509;-35
2022/08/13 10:33:14;;;;;;;2.22;1.77;;;25.50;42.30;;;;;;5053110;28;20032;-37
2022/08/13 10:35:40;;;;;;;3.20;2.00;;;25.50;41.30;;;;;;5064393;28;20034;-35
2022/08/13 10:38:08;;;;;;;3.05;2.20;;;25.80;41.30;;;;;;5055166;28;20485;-32
2022/08/13 10:40:34;;;;;;;5.10;1.88;;;26.00;42.00;;;;;;5066822;28;20029;-31
2022/08/13 10:43:00;;;;;;;2.95;2.08;;;26.00;37.10;;;;;;5055502;28;20028;-32
2022/08/13 10:45:26;;;;;;;4.05;2.10;;;25.90;38.80;;;;;;5058632;28;20034;-35
2022/08/13 10:47:57;;;;;;;2.25;2.05;;;25.80;39.10;;;;;;5051460;28;20033;-32
2022/08/13 10:50:29;;;;;;;2.65;2.00;;;25.70;41.70;;;;;;5056711;28;20084;-31
2022/08/13 10:52:57;;;;;;;1.70;1.60;;;25.70;41.00;;;;;;5060508;28;20056;-31
2022/08/13 10:55:24;;;;;;;2.05;1.90;;;25.50;39.70;;;;;;5055259;28;20040;-33
2022/08/13 10:57:50;;;;;;;1.80;1.70;;;25.60;38.70;;;;;;5050541;28;20041;-31
2022/08/13 11:00:16;;;;;;;2.00;1.80;;;26.00;38.00;;;;;;5055703;28;20041;-31
2022/08/13 11:02:43;;;;;;;3.63;1.88;;;26.10;39.50;;;;;;5052342;28;20041;-34
2022/08/13 11:05:11;;;;;;;2.40;2.20;;;26.00;39.30;;;;;;5054279;28;20041;-32
2022/08/13 11:07:38;;;;;;;2.08;1.95;;;26.00;41.60;;;;;;5055186;28;20072;-31
2022/08/13 11:10:07;;;;;;;1.90;1.80;;;26.10;41.70;;;;;;5057282;28;20021;-31
2022/08/13 11:12:33;;;;;;;2.63;2.42;;;26.20;43.40;;;;;;5049742;28;20108;-35
2022/08/13 11:15:00;;;;;;;4.30;2.10;;;26.50;41.60;;;;;;5053302;28;20033;-36
2022/08/13 11:17:26;;;;;;;2.22;2.13;;;26.20;40.30;;;;;;5054681;28;20134;-31
2022/08/13 11:19:52;;;;;;;4.38;2.47;;;26.30;41.40;;;;;;5049981;28;20042;-32
2022/08/13 11:22:20;;;;;;;1.95;1.85;;;26.20;41.60;;;;;;5041958;28;20052;-30
2022/08/13 11:24:45;;;;;;;1.73;1.63;;;26.30;39.20;;;;;;5046356;28;20332;-31
2022/08/13 11:27:11;;;;;;;2.33;2.13;;;26.30;41.00;;;;;;5044840;28;20041;-31
2022/08/13 11:29:37;;;;;;;3.75;2.03;;;26.30;38.50;;;;;;5050947;28;20044;-30
2022/08/13 11:32:04;;;;;;;3.13;1.95;;;25.90;40.00;;;;;;5056190;28;20048;-32
2022/08/13 11:34:30;;;;;;;3.20;2.33;;;26.10;39.90;;;;;;5050421;28;20021;-33
2022/08/13 11:36:55;;;;;;;2.20;2.00;;;26.10;41.40;;;;;;5053375;28;20070;-34
2022/08/13 11:39:22;;;;;;;2.50;2.17;;;26.30;39.40;;;;;;5050766;28;20029;-34
2022/08/13 11:41:48;;;;;;;2.22;2.05;;;26.20;38.70;;;;;;5051906;28;20055;-32
2022/08/13 11:44:14;;;;;;;1.88;1.77;;;26.20;39.90;;;;;;5051241;28;20045;-31
2022/08/13 11:46:40;;;;;;;2.30;2.10;;;26.30;38.10;;;;;;5058521;28;20029;-34
2022/08/13 11:49:06;;;;;;;2.58;2.20;;;26.30;40.90;;;;;;5050972;28;20052;-35
2022/08/13 11:51:33;;;;;;;1.75;1.65;;;26.10;37.80;;;;;;5054228;28;20045;-35
2022/08/13 11:53:58;;;;;;;2.00;1.90;;;25.90;37.60;;;;;;5055261;28;20037;-31
2022/08/13 11:56:24;;;;;;;2.17;2.08;;;26.00;40.20;;;;;;5049388;28;20104;-30
2022/08/13 11:58:51;;;;;;;2.40;2.15;;;25.70;41.20;;;;;;5054428;28;20031;-32
2022/08/13 12:01:18;;;;;;;3.90;2.15;;;25.30;41.30;;;;;;5056780;28;20107;-33
2022/08/13 12:03:44;;;;;;;2.63;1.97;;;25.60;39.70;;;;;;5052645;28;20025;-34
2022/08/13 12:06:10;;;;;;;2.58;2.03;;;25.70;38.90;;;;;;5056168;28;20760;-31
2022/08/13 12:08:37;;;;;;;2.15;2.05;;;25.80;40.90;;;;;;5059458;28;20044;-32
2022/08/13 12:11:03;;;;;;;2.88;1.98;;;26.00;41.70;;;;;;5060875;28;20028;-31
2022/08/13 12:13:29;;;;;;;3.40;1.80;;;26.30;39.10;;;;;;5053504;28;20025;-34
2022/08/13 12:15:55;;;;;;;2.80;2.00;;;26.20;40.00;;;;;;5049105;28;20030;-31
2022/08/13 12:18:21;;;;;;;2.22;2.08;;;26.10;41.90;;;;;;5061218;28;20029;-31
2022/08/13 12:20:46;;;;;;;2.47;2.10;;;26.20;40.30;;;;;;5053760;28;20052;-32
2022/08/13 12:23:12;;;;;;;2.53;1.90;;;26.10;38.10;;;;;;5049592;28;20602;-31
2022/08/13 12:25:38;;;;;;;2.17;1.95;;;26.00;39.40;;;;;;5046519;28;20021;-31
2022/08/13 12:28:07;;;;;;;2.22;2.03;;;26.00;40.00;;;;;;5053533;28;20052;-34
2022/08/13 12:30:33;;;;;;;3.38;2.10;;;26.10;39.90;;;;;;5054023;28;20033;-32
2022/08/13 12:32:59;;;;;;;1.92;1.75;;;26.10;38.80;;;;;;5050742;28;20446;-31
2022/08/13 12:35:24;;;;;;;2.90;2.50;;;26.20;37.80;;;;;;5044698;28;20040;-34
2022/08/13 12:37:50;;;;;;;2.30;2.10;;;25.90;38.70;;;;;;5057160;28;20559;-34
2022/08/13 12:40:15;;;;;;;2.35;2.13;;;26.00;38.70;;;;;;5047270;28;20827;-32
2022/08/13 12:42:41;;;;;;;2.80;2.13;;;26.10;38.20;;;;;;5050125;28;20022;-31
2022/08/13 12:45:09;;;;;;;2.03;1.92;;;26.10;38.60;;;;;;5054204;28;20029;-33
2022/08/13 12:47:35;;;;;;;2.40;2.20;;;26.10;38.00;;;;;;5045530;28;20029;-32
2022/08/13 12:50:02;;;;;;;2.25;1.92;;;26.10;37.60;;;;;;5054821;28;20520;-32
2022/08/13 12:52:28;;;;;;;2.20;2.00;;;26.20;36.60;;;;;;5042881;28;20051;-31
2022/08/13 12:54:53;;;;;;;2.30;2.10;;;26.40;38.80;;;;;;5048898;28;20049;-31
2022/08/13 12:57:19;;;;;;;2.20;2.10;;;26.30;37.50;;;;;;5048208;28;20030;-31
2022/08/13 12:59:44;;;;;;;2.33;2.17;;;26.30;40.30;;;;;;5046184;28;20048;-31
2022/08/13 13:02:10;;;;;;;2.95;2.20;;;26.60;36.50;;;;;;5053286;28;20509;-31
2022/08/13 13:04:41;;;;;;;2.63;2.20;;;26.50;37.50;;;;;;5053760;28;20025;-30
2022/08/13 13:07:07;;;;;;;2.58;2.28;;;26.50;37.00;;;;;;5052936;28;20129;-31
2022/08/13 13:09:33;;;;;;;2.67;2.00;;;26.40;38.30;;;;;;5045959;28;20030;-31
2022/08/13 13:11:58;;;;;;;2.40;2.20;;;26.50;38.50;;;;;;5051578;28;20057;-31
2022/08/13 13:14:24;;;;;;;2.50;2.13;;;26.60;38.10;;;;;;5045929;28;20040;-31
2022/08/13 13:16:50;;;;;;;2.33;2.20;;;26.60;38.10;;;;;;5050245;28;20078;-32
2022/08/13 13:19:16;;;;;;;2.30;2.15;;;26.20;37.50;;;;;;5051040;28;20026;-37
2022/08/13 13:21:45;;;;;;;1.98;1.88;;;26.20;38.00;;;;;;5043622;28;20036;-31
2022/08/13 13:24:12;;;;;;;3.22;2.20;;;26.30;37.60;;;;;;5052072;28;20018;-30
2022/08/13 13:26:37;;;;;;;2.03;1.92;;;26.50;38.10;;;;;;5040607;28;20031;-33
2022/08/13 13:29:03;;;;;;;3.15;2.00;;;26.70;39.00;;;;;;5050786;28;20021;-31
2022/08/13 13:31:29;;;;;;;2.20;2.00;;;26.40;38.00;;;;;;5045680;28;20102;-33
2022/08/13 13:33:54;;;;;;;1.98;1.88;;;26.00;39.40;;;;;;5049333;28;20025;-32
2022/08/13 13:36:21;;;;;;;2.53;2.33;;;25.60;38.70;;;;;;5047564;28;20045;-31
2022/08/13 13:38:46;;;;;;;2.20;2.00;;;25.50;38.90;;;;;;5052047;28;20037;-31
2022/08/13 13:41:12;;;;;;;2.30;2.10;;;25.60;40.30;;;;;;5040583;28;20033;-32
2022/08/13 13:43:38;;;;;;;2.55;2.00;;;25.50;40.60;;;;;;5044764;28;20029;-34
2022/08/13 13:46:04;;;;;;;3.38;2.10;;;25.60;39.90;;;;;;5043367;28;20017;-32
2022/08/13 13:48:33;;;;;;;3.37;2.03;;;25.80;39.20;;;;;;5044440;28;20033;-32
2022/08/13 13:51:02;;;;;;;2.53;2.05;;;25.70;39.80;;;;;;5053340;28;20051;-34
2022/08/13 13:53:32;;;;;;;2.28;2.13;;;25.70;38.40;;;;;;5055517;28;20115;-31
2022/08/13 13:55:59;;;;;;;2.80;2.53;;;25.50;39.00;;;;;;5042977;28;20029;-31
2022/08/13 13:58:26;;;;;;;2.40;2.20;;;25.40;39.10;;;;;;5056493;28;20402;-32
2022/08/13 14:00:53;;;;;;;2.67;2.47;;;25.40;39.60;;;;;;5047458;28;21258;-37
2022/08/13 14:03:22;;;;;;;5.70;2.30;;;25.50;39.40;;;;;;5058044;28;20025;-31